Time;durP1;ratioP1;P1;durP2;ratioP2;P2;SDS_P1;SDS_P2;PMS_P1;PMS_P2;Temp;Humidity;BMP_temperature;BMP_pressure;BME280_temperature;BME280_humidity;BME280_pressure;Samples;Min_cycle;Max_cycle;Signal;HPM_P1;HPM_P2
2020/12/10 00:01:52;;;;;;;3.20;0.77;;;;;;;;;;4351994;32;20102;-75
2020/12/10 00:04:21;;;;;;;3.70;1.37;;;;;;;;;;4350854;32;20122;-75
2020/12/10 00:06:50;;;;;;;3.87;1.20;;;;;;;;;;4355559;32;20941;-75
2020/12/10 00:09:18;;;;;;;6.12;1.08;;;;;;;;;;4358386;32;20146;-75
2020/12/10 00:11:47;;;;;;;4.80;0.98;;;;;;;;;;4361799;32;20067;-75
2020/12/10 00:14:16;;;;;;;6.53;1.58;;;;;;;;;;4344309;32;20475;-75
2020/12/10 00:16:56;;;;;;;6.22;1.25;;;;;;;;;;4346930;32;20489;-75
2020/12/10 00:19:25;;;;;;;3.72;1.02;;;;;;;;;;4362124;32;20114;-75
2020/12/10 00:21:55;;;;;;;0.60;0.60;;;;;;;;;;4357212;32;20094;-76
2020/12/10 00:24:25;;;;;;;7.72;0.90;;;;;;;;;;4351163;32;20125;-76
2020/12/10 00:27:04;;;;;;;5.87;1.40;;;;;;;;;;4355426;32;20099;-75
2020/12/10 00:29:32;;;;;;;4.78;0.88;;;;;;;;;;4362574;32;20107;-76
2020/12/10 00:32:01;;;;;;;4.62;0.98;;;;;;;;;;4357237;32;20113;-77
2020/12/10 00:34:47;;;;;;;2.17;0.77;;;;;;;;;;4352512;32;20101;-77
2020/12/10 00:37:17;;;;;;;3.25;1.48;;;;;;;;;;4353704;32;21081;-76
2020/12/10 00:39:45;;;;;;;7.85;1.10;;;;;;;;;;4354844;32;20059;-77
2020/12/10 00:42:14;;;;;;;3.22;0.95;;;;;;;;;;4351618;32;20064;-77
2020/12/10 00:44:42;;;;;;;4.87;1.60;;;;;;;;;;4356559;32;20119;-77
2020/12/10 00:47:11;;;;;;;5.30;1.45;;;;;;;;;;4354689;32;20099;-77
2020/12/10 00:49:41;;;;;;;5.57;0.82;;;;;;;;;;4356318;32;20552;-77
2020/12/10 00:52:10;;;;;;;6.75;1.05;;;;;;;;;;4356506;32;20056;-77
2020/12/10 00:54:39;;;;;;;5.20;0.93;;;;;;;;;;4350700;32;20118;-76
2020/12/10 00:57:09;;;;;;;9.88;1.00;;;;;;;;;;4354850;32;20118;-76
2020/12/10 00:59:41;;;;;;;4.22;0.88;;;;;;;;;;4354689;32;20899;-77
2020/12/10 01:02:10;;;;;;;4.15;1.12;;;;;;;;;;4355758;32;20452;-77
2020/12/10 01:04:38;;;;;;;4.65;1.17;;;;;;;;;;4354842;32;21345;-77
2020/12/10 01:07:07;;;;;;;2.65;1.20;;;;;;;;;;4357422;32;20125;-76
2020/12/10 01:09:35;;;;;;;4.20;1.20;;;;;;;;;;4361400;32;20047;-76
2020/12/10 01:12:07;;;;;;;2.97;0.80;;;;;;;;;;4346371;32;20122;-77
2020/12/10 01:14:36;;;;;;;3.70;0.70;;;;;;;;;;4353596;32;20675;-77
2020/12/10 01:17:04;;;;;;;4.37;1.05;;;;;;;;;;4352781;32;20148;-77
2020/12/10 01:19:33;;;;;;;5.03;1.70;;;;;;;;;;4354150;32;20141;-77
2020/12/10 01:22:01;;;;;;;2.72;1.70;;;;;;;;;;4352690;32;20055;-76
2020/12/10 01:24:30;;;;;;;7.62;1.77;;;;;;;;;;4350971;32;20141;-76
2020/12/10 01:26:58;;;;;;;4.43;2.20;;;;;;;;;;4352766;32;20098;-76
2020/12/10 01:29:27;;;;;;;4.80;1.50;;;;;;;;;;4361496;32;20124;-76
2020/12/10 01:31:56;;;;;;;8.38;2.00;;;;;;;;;;4359610;32;20098;-77
2020/12/10 01:34:24;;;;;;;9.07;2.55;;;;;;;;;;4359772;32;20079;-76
2020/12/10 01:36:53;;;;;;;10.65;2.03;;;;;;;;;;4353596;32;20086;-75
2020/12/10 01:39:21;;;;;;;14.18;2.22;;;;;;;;;;4355412;32;20437;-75
2020/12/10 01:41:50;;;;;;;6.37;1.58;;;;;;;;;;4353837;32;20091;-74
2020/12/10 01:44:19;;;;;;;10.90;2.03;;;;;;;;;;4351479;32;20557;-75
2020/12/10 01:46:47;;;;;;;2.00;1.30;;;;;;;;;;4360687;32;20465;-75
2020/12/10 01:49:17;;;;;;;2.25;1.80;;;;;;;;;;4362312;32;20090;-75
2020/12/10 01:51:46;;;;;;;6.80;2.40;;;;;;;;;;4362993;32;20146;-74
2020/12/10 01:54:14;;;;;;;8.63;2.05;;;;;;;;;;4361849;32;20101;-75
2020/12/10 01:56:43;;;;;;;11.32;2.35;;;;;;;;;;4362463;32;20346;-74
2020/12/10 01:59:13;;;;;;;8.70;2.12;;;;;;;;;;4365400;32;20409;-75
2020/12/10 02:01:41;;;;;;;2.97;1.20;;;;;;;;;;4364362;32;20077;-76
2020/12/10 02:04:27;;;;;;;3.72;1.58;;;;;;;;;;4360027;32;20411;-75
2020/12/10 02:06:58;;;;;;;6.45;1.62;;;;;;;;;;4349742;32;20367;-75
2020/12/10 02:09:26;;;;;;;3.92;1.40;;;;;;;;;;4367820;32;20098;-75
2020/12/10 02:11:55;;;;;;;3.67;1.80;;;;;;;;;;4362826;32;20061;-75
2020/12/10 02:14:31;;;;;;;5.87;1.95;;;;;;;;;;4366127;32;20047;-75
2020/12/10 02:17:00;;;;;;;3.55;2.22;;;;;;;;;;4367574;32;20074;-75
2020/12/10 02:19:29;;;;;;;3.25;2.12;;;;;;;;;;4368890;32;20052;-75
2020/12/10 02:21:57;;;;;;;2.85;2.30;;;;;;;;;;4360741;32;20125;-74
2020/12/10 02:24:26;;;;;;;3.15;1.95;;;;;;;;;;4365198;32;20371;-74
2020/12/10 02:26:55;;;;;;;2.22;1.90;;;;;;;;;;4362354;32;20085;-75
2020/12/10 02:29:23;;;;;;;3.70;2.10;;;;;;;;;;4369279;32;20413;-75
2020/12/10 02:31:51;;;;;;;8.02;2.58;;;;;;;;;;4362493;32;20066;-76
2020/12/10 02:34:20;;;;;;;5.15;2.20;;;;;;;;;;4361954;32;20128;-76
2020/12/10 02:36:49;;;;;;;4.87;2.00;;;;;;;;;;4360676;32;20169;-77
2020/12/10 02:39:17;;;;;;;3.70;2.15;;;;;;;;;;4359588;32;20055;-76
2020/12/10 02:41:47;;;;;;;4.25;2.00;;;;;;;;;;4362802;32;20056;-76
2020/12/10 02:44:15;;;;;;;11.30;2.30;;;;;;;;;;4361435;32;20048;-77
2020/12/10 02:46:44;;;;;;;3.12;1.83;;;;;;;;;;4360474;32;20432;-76
2020/12/10 02:49:13;;;;;;;2.20;1.30;;;;;;;;;;4357748;32;20086;-76
2020/12/10 02:51:45;;;;;;;2.10;1.52;;;;;;;;;;4357496;32;20354;-76
2020/12/10 02:54:13;;;;;;;1.65;0.93;;;;;;;;;;4362995;32;20190;-76
2020/12/10 02:56:43;;;;;;;11.30;8.50;;;;;;;;;;4360235;32;20166;-78
2020/12/10 02:59:11;;;;;;;20.37;16.23;;;;;;;;;;4366409;32;20086;-77
2020/12/10 03:01:40;;;;;;;42.62;40.00;;;;;;;;;;4361436;32;20059;-76
2020/12/10 03:04:09;;;;;;;30.95;29.00;;;;;;;;;;4366419;32;20105;-76
2020/12/10 03:06:37;;;;;;;33.08;30.83;;;;;;;;;;4361778;32;20144;-76
2020/12/10 03:09:06;;;;;;;2.10;1.80;;;;;;;;;;4352370;32;20048;-77
2020/12/10 03:11:34;;;;;;;1.23;0.73;;;;;;;;;;4384659;27;20104;-93
2020/12/10 03:14:03;;;;;;;2.87;1.10;;;;;;;;;;4355825;32;20067;-94
2020/12/10 03:16:33;;;;;;;5.05;3.50;;;;;;;;;;4354840;32;20091;-96
2020/12/10 03:19:01;;;;;;;4.15;0.80;;;;;;;;;;4335964;33;20147;-94
2020/12/10 03:21:30;;;;;;;18.10;16.15;;;;;;;;;;4330949;33;20098;-96
2020/12/10 03:23:59;;;;;;;6.47;6.07;;;;;;;;;;4341490;33;20075;-94
2020/12/10 03:26:27;;;;;;;7.95;7.47;;;;;;;;;;4341021;33;20083;-94
2020/12/10 03:28:56;;;;;;;6.50;1.17;;;;;;;;;;4344867;33;20055;-94
2020/12/10 03:31:25;;;;;;;3.05;0.70;;;;;;;;;;4345202;33;20056;-93
2020/12/10 03:33:55;;;;;;;3.55;1.30;;;;;;;;;;4340815;33;20067;-93
2020/12/10 03:36:24;;;;;;;3.72;1.23;;;;;;;;;;4319881;33;20059;-96
2020/12/10 03:38:53;;;;;;;3.70;0.88;;;;;;;;;;4344247;33;20117;-94
2020/12/10 03:41:22;;;;;;;6.37;0.98;;;;;;;;;;4332240;33;20095;-94
2020/12/10 03:43:50;;;;;;;4.03;0.85;;;;;;;;;;4342398;33;20082;-94
2020/12/10 03:46:19;;;;;;;11.98;1.00;;;;;;;;;;4328715;33;20115;-94
2020/12/10 03:48:47;;;;;;;10.48;0.95;;;;;;;;;;4354718;32;20067;-94
2020/12/10 03:51:15;;;;;;;3.50;1.95;;;;;;;;;;4344533;33;20093;-93
2020/12/10 03:53:44;;;;;;;5.15;4.68;;;;;;;;;;4351061;32;20409;-95
2020/12/10 03:56:13;;;;;;;3.45;1.67;;;;;;;;;;4351340;32;20083;-93
2020/12/10 03:58:41;;;;;;;3.97;0.75;;;;;;;;;;4340692;33;20120;-93
2020/12/10 04:01:10;;;;;;;3.00;1.23;;;;;;;;;;4351049;33;20107;-95
2020/12/10 04:03:39;;;;;;;26.65;25.12;;;;;;;;;;4345978;32;20099;-95
2020/12/10 04:06:08;;;;;;;6.40;0.60;;;;;;;;;;4357142;32;20079;-94
2020/12/10 04:08:37;;;;;;;5.37;0.93;;;;;;;;;;4354390;32;20079;-93
2020/12/10 04:11:06;;;;;;;3.08;0.82;;;;;;;;;;4340926;33;20064;-94
2020/12/10 04:13:34;;;;;;;10.20;9.63;;;;;;;;;;4339071;33;20487;-95
2020/12/10 04:16:03;;;;;;;2.35;0.70;;;;;;;;;;4340418;33;20506;-94
2020/12/10 04:18:33;;;;;;;3.10;1.10;;;;;;;;;;4339714;33;20064;-95
2020/12/10 04:21:01;;;;;;;3.25;1.12;;;;;;;;;;4331465;33;20067;-94
2020/12/10 04:23:29;;;;;;;8.15;4.62;;;;;;;;;;4332717;32;20063;-93
2020/12/10 04:25:58;;;;;;;6.03;2.58;;;;;;;;;;4340654;33;20111;-94
2020/12/10 04:28:26;;;;;;;7.00;3.62;;;;;;;;;;4330896;33;20080;-93
2020/12/10 04:30:55;;;;;;;4.87;2.90;;;;;;;;;;4327699;33;20149;-93
2020/12/10 04:33:25;;;;;;;9.43;3.25;;;;;;;;;;4348915;32;20087;-94
2020/12/10 04:35:53;;;;;;;9.23;3.53;;;;;;;;;;4354893;33;20814;-94
2020/12/10 04:38:22;;;;;;;5.35;3.70;;;;;;;;;;4331585;33;20366;-94
2020/12/10 04:40:51;;;;;;;3.85;1.98;;;;;;;;;;4326529;33;20179;-94
2020/12/10 04:43:26;;;;;;;6.03;1.20;;;;;;;;;;4337672;33;20139;-93
2020/12/10 04:45:59;;;;;;;2.72;1.05;;;;;;;;;;4353393;32;20366;-93
2020/12/10 04:48:29;;;;;;;1.83;0.60;;;;;;;;;;4348764;32;20065;-93
2020/12/10 04:51:01;;;;;;;2.15;0.77;;;;;;;;;;4331048;33;20064;-93
2020/12/10 04:53:29;;;;;;;6.25;1.05;;;;;;;;;;4346509;32;21610;-93
2020/12/10 04:55:59;;;;;;;12.18;9.95;;;;;;;;;;4356613;32;20453;-93
2020/12/10 04:58:27;;;;;;;9.27;3.05;;;;;;;;;;4342647;33;20420;-93
2020/12/10 05:00:58;;;;;;;3.00;2.80;;;;;;;;;;4354379;32;20118;-94
2020/12/10 05:03:28;;;;;;;6.47;3.97;;;;;;;;;;4347595;32;20107;-93
2020/12/10 05:06:13;;;;;;;4.28;3.20;;;;;;;;;;4331708;33;20055;-93
2020/12/10 05:08:43;;;;;;;6.00;3.40;;;;;;;;;;4325982;33;20086;-93
2020/12/10 05:11:11;;;;;;;4.53;4.20;;;;;;;;;;4332631;32;20187;-94
2020/12/10 05:13:40;;;;;;;6.20;3.25;;;;;;;;;;4324378;33;20100;-93
2020/12/10 05:16:22;;;;;;;8.18;2.40;;;;;;;;;;4326923;33;20052;-93
2020/12/10 05:19:00;;;;;;;4.03;0.80;;;;;;;;;;4326204;33;20060;-94
2020/12/10 05:21:29;;;;;;;9.35;3.60;;;;;;;;;;4337176;33;20087;-94
2020/12/10 05:23:58;;;;;;;3.58;3.28;;;;;;;;;;4336323;33;20092;-93
2020/12/10 05:26:26;;;;;;;9.18;2.95;;;;;;;;;;4313640;33;20548;-94
2020/12/10 05:28:56;;;;;;;8.10;3.22;;;;;;;;;;4327156;33;20060;-93
2020/12/10 05:31:24;;;;;;;5.78;3.35;;;;;;;;;;4316173;33;20052;-94
2020/12/10 05:33:54;;;;;;;8.10;3.37;;;;;;;;;;4329545;33;20060;-95
2020/12/10 05:36:23;;;;;;;4.53;3.60;;;;;;;;;;4341801;33;20100;-94
2020/12/10 05:39:03;;;;;;;6.18;3.08;;;;;;;;;;4340158;33;20079;-93
2020/12/10 05:41:35;;;;;;;10.93;3.97;;;;;;;;;;4337994;33;20060;-94
2020/12/10 05:44:23;;;;;;;5.43;2.72;;;;;;;;;;4316653;33;20422;-95
2020/12/10 05:46:53;;;;;;;5.70;2.90;;;;;;;;;;4336633;33;20171;-95
2020/12/10 05:49:22;;;;;;;5.28;3.50;;;;;;;;;;4328898;33;20052;-95
2020/12/10 05:51:51;;;;;;;3.25;0.98;;;;;;;;;;4315547;33;20061;-93
2020/12/10 05:54:20;;;;;;;6.75;1.10;;;;;;;;;;4322500;33;21308;-93
2020/12/10 05:56:55;;;;;;;3.90;1.27;;;;;;;;;;4334935;33;20443;-95
2020/12/10 05:59:27;;;;;;;4.50;3.47;;;;;;;;;;4340248;33;20064;-94
2020/12/10 06:01:59;;;;;;;4.55;2.50;;;;;;;;;;4335324;33;20075;-96
2020/12/10 06:04:28;;;;;;;4.32;2.45;;;;;;;;;;4325268;33;20052;-93
2020/12/10 06:07:01;;;;;;;7.00;2.17;;;;;;;;;;4328105;33;20080;-94
2020/12/10 06:09:29;;;;;;;6.82;1.37;;;;;;;;;;4313747;33;20060;-94
2020/12/10 06:12:01;;;;;;;1.87;1.10;;;;;;;;;;4324430;33;20078;-94
2020/12/10 06:14:30;;;;;;;5.45;1.30;;;;;;;;;;4353846;32;20155;-94
2020/12/10 06:17:10;;;;;;;7.12;2.30;;;;;;;;;;4325604;33;20543;-94
2020/12/10 06:19:39;;;;;;;5.57;2.37;;;;;;;;;;4335933;33;20066;-93
2020/12/10 06:22:27;;;;;;;3.90;2.90;;;;;;;;;;4341691;33;20052;-95
2020/12/10 06:24:57;;;;;;;8.88;2.50;;;;;;;;;;4336640;33;20087;-95
2020/12/10 06:27:26;;;;;;;3.97;3.03;;;;;;;;;;4337646;33;20075;-95
2020/12/10 06:30:15;;;;;;;4.20;2.53;;;;;;;;;;4350537;32;20865;-92
2020/12/10 06:32:51;;;;;;;2.70;2.50;;;;;;;;;;4346832;32;20384;-92
2020/12/10 06:35:36;;;;;;;7.12;2.90;;;;;;;;;;4338398;33;20068;-92
2020/12/10 06:38:06;;;;;;;5.32;2.45;;;;;;;;;;4323747;33;20056;-92
2020/12/10 06:40:39;;;;;;;11.25;2.78;;;;;;;;;;4349096;33;20825;-93
2020/12/10 06:43:09;;;;;;;5.50;2.75;;;;;;;;;;4326521;33;20075;-92
2020/12/10 06:45:38;;;;;;;5.55;2.37;;;;;;;;;;4353924;32;20052;-94
2020/12/10 06:48:11;;;;;;;6.82;3.00;;;;;;;;;;4330428;33;20409;-93
2020/12/10 06:50:40;;;;;;;4.55;2.65;;;;;;;;;;4322545;33;20102;-92
2020/12/10 06:53:12;;;;;;;7.68;2.60;;;;;;;;;;4325841;33;20060;-91
2020/12/10 06:56:05;;;;;;;4.65;2.20;;;;;;;;;;4339543;33;20453;-92
2020/12/10 06:58:41;;;;;;;5.00;2.72;;;;;;;;;;4331008;33;20130;-94
2020/12/10 07:01:23;;;;;;;3.80;2.70;;;;;;;;;;4336768;33;20087;-94
2020/12/10 07:03:55;;;;;;;5.75;2.85;;;;;;;;;;4337262;33;20061;-94
2020/12/10 07:06:23;;;;;;;10.93;3.22;;;;;;;;;;4352724;33;20166;-94
2020/12/10 07:09:14;;;;;;;9.15;3.03;;;;;;;;;;4330010;33;20110;-94
2020/12/10 07:11:44;;;;;;;8.63;2.45;;;;;;;;;;4329673;33;20424;-93
2020/12/10 07:14:24;;;;;;;4.85;3.35;;;;;;;;;;4352424;33;20110;-92
2020/12/10 07:16:53;;;;;;;8.68;6.37;;;;;;;;;;4329541;33;20090;-94
2020/12/10 07:19:22;;;;;;;6.72;3.17;;;;;;;;;;4333938;33;20059;-93
2020/12/10 07:21:50;;;;;;;7.43;3.05;;;;;;;;;;4326008;33;20056;-93
2020/12/10 07:24:19;;;;;;;6.20;3.90;;;;;;;;;;4351949;33;20060;-93
2020/12/10 07:26:47;;;;;;;6.45;3.00;;;;;;;;;;4333195;33;20111;-92
2020/12/10 07:29:18;;;;;;;4.53;3.55;;;;;;;;;;4321821;33;20056;-91
2020/12/10 07:31:47;;;;;;;4.50;1.98;;;;;;;;;;4332409;33;20088;-93
2020/12/10 07:34:15;;;;;;;6.15;1.00;;;;;;;;;;4336431;33;20097;-93
2020/12/10 07:36:51;;;;;;;4.15;0.70;;;;;;;;;;4341272;33;20087;-93
2020/12/10 07:39:33;;;;;;;7.72;0.88;;;;;;;;;;4341740;33;20052;-92
2020/12/10 07:42:01;;;;;;;4.15;0.85;;;;;;;;;;4355306;32;20053;-92
2020/12/10 07:44:33;;;;;;;4.20;0.98;;;;;;;;;;4342336;33;20078;-94
2020/12/10 07:47:03;;;;;;;7.97;1.98;;;;;;;;;;4349710;33;20120;-93
2020/12/10 07:49:34;;;;;;;3.87;1.55;;;;;;;;;;4352575;32;20078;-94
2020/12/10 07:52:06;;;;;;;4.07;1.70;;;;;;;;;;4339940;33;20079;-91
2020/12/10 07:54:43;;;;;;;2.47;2.10;;;;;;;;;;4335452;33;21424;-94
2020/12/10 07:57:18;;;;;;;2.87;0.37;;;;;;;;;;4341976;33;20083;-93
2020/12/10 07:59:48;;;;;;;3.17;0.70;;;;;;;;;;4351711;33;20166;-91
2020/12/10 08:02:16;;;;;;;3.10;0.90;;;;;;;;;;4343125;33;20086;-92
2020/12/10 08:05:01;;;;;;;1.80;1.37;;;;;;;;;;4338322;33;20067;-94
2020/12/10 08:07:48;;;;;;;6.10;2.40;;;;;;;;;;4339996;33;20086;-92
2020/12/10 08:10:23;;;;;;;4.10;3.25;;;;;;;;;;4348427;33;20060;-94
2020/12/10 08:13:11;;;;;;;3.87;3.10;;;;;;;;;;4354169;32;20083;-95
2020/12/10 08:15:41;;;;;;;6.07;2.65;;;;;;;;;;4368932;32;20036;-93
2020/12/10 08:18:11;;;;;;;8.32;2.58;;;;;;;;;;4360993;32;20091;-95
2020/12/10 08:20:42;;;;;;;7.95;3.15;;;;;;;;;;4361126;32;20028;-95
2020/12/10 08:23:14;;;;;;;5.10;2.03;;;;;;;;;;4361679;32;20060;-96
2020/12/10 08:25:43;;;;;;;5.28;3.17;;;;;;;;;;4372251;32;20185;-95
2020/12/10 08:28:12;;;;;;;5.10;4.70;;;;;;;;;;4354568;32;20039;-94
2020/12/10 08:30:51;;;;;;;4.32;3.92;;;;;;;;;;4356985;33;20761;-95
2020/12/10 08:33:21;;;;;;;3.37;1.92;;;;;;;;;;4364750;32;20051;-95
2020/12/10 08:35:49;;;;;;;2.25;1.50;;;;;;;;;;4354590;32;20041;-94
2020/12/10 08:38:19;;;;;;;1.42;1.20;;;;;;;;;;4364906;32;20207;-94
2020/12/10 08:40:55;;;;;;;3.70;2.70;;;;;;;;;;4361083;32;20101;-94
2020/12/10 08:43:24;;;;;;;6.37;4.12;;;;;;;;;;4367947;32;20398;-93
2020/12/10 08:45:54;;;;;;;2.60;0.80;;;;;;;;;;4348351;32;20468;-93
2020/12/10 08:48:27;;;;;;;4.85;1.50;;;;;;;;;;4340285;33;20047;-95
2020/12/10 08:51:16;;;;;;;3.28;1.40;;;;;;;;;;4350291;32;20075;-93
2020/12/10 08:53:59;;;;;;;3.67;1.42;;;;;;;;;;4335429;33;20057;-95
2020/12/10 08:56:35;;;;;;;6.70;1.20;;;;;;;;;;4341062;33;20134;-94
2020/12/10 08:59:04;;;;;;;5.15;1.23;;;;;;;;;;4341756;33;20095;-96
2020/12/10 09:01:33;;;;;;;3.85;1.25;;;;;;;;;;4330408;33;20068;-93
2020/12/10 09:04:03;;;;;;;5.65;1.10;;;;;;;;;;4324353;33;20114;-91
2020/12/10 09:06:37;;;;;;;3.95;1.50;;;;;;;;;;4340423;32;20100;-90
2020/12/10 09:09:07;;;;;;;5.32;1.75;;;;;;;;;;4340520;33;20090;-91
2020/12/10 09:11:36;;;;;;;10.05;1.15;;;;;;;;;;4347615;32;20078;-92
2020/12/10 09:14:06;;;;;;;6.57;0.95;;;;;;;;;;4334951;33;20091;-91
2020/12/10 09:16:51;;;;;;;7.18;1.65;;;;;;;;;;4339161;32;20071;-91
2020/12/10 09:19:20;;;;;;;2.05;0.98;;;;;;;;;;4331373;33;20378;-90
2020/12/10 09:21:48;;;;;;;9.80;1.73;;;;;;;;;;4332108;33;20740;-91
2020/12/10 09:24:17;;;;;;;4.03;0.80;;;;;;;;;;4332977;33;20110;-90
2020/12/10 09:26:54;;;;;;;3.37;1.60;;;;;;;;;;4348074;33;20779;-91
2020/12/10 09:29:24;;;;;;;5.65;5.22;;;;;;;;;;4334235;33;20119;-92
2020/12/10 09:31:55;;;;;;;3.45;1.70;;;;;;;;;;4335804;32;20116;-91
2020/12/10 09:34:24;;;;;;;2.97;1.10;;;;;;;;;;4322480;33;20123;-92
2020/12/10 09:37:07;;;;;;;4.68;1.00;;;;;;;;;;4346689;32;20068;-91
2020/12/10 09:39:37;;;;;;;4.87;1.65;;;;;;;;;;4338083;33;20110;-89
2020/12/10 09:42:07;;;;;;;4.97;2.30;;;;;;;;;;4336368;33;20393;-91
2020/12/10 09:44:35;;;;;;;4.72;2.25;;;;;;;;;;4331373;33;20056;-91
2020/12/10 09:47:10;;;;;;;9.60;2.97;;;;;;;;;;4335545;33;20078;-89
2020/12/10 09:49:38;;;;;;;1.48;0.60;;;;;;;;;;4324543;33;20063;-90
2020/12/10 09:52:25;;;;;;;5.75;1.27;;;;;;;;;;4322686;33;20099;-91
2020/12/10 09:57:32;;;;;;;7.97;7.47;;;;;;;;;;4337604;33;20078;-89
2020/12/10 10:00:03;;;;;;;4.72;1.02;;;;;;;;;;4334279;33;20630;-91
2020/12/10 10:02:38;;;;;;;6.40;1.60;;;;;;;;;;4338053;33;20508;-89
2020/12/10 10:05:21;;;;;;;3.87;0.82;;;;;;;;;;4334953;33;20052;-89
2020/12/10 10:07:50;;;;;;;6.03;1.42;;;;;;;;;;4333117;33;20120;-88
2020/12/10 10:10:19;;;;;;;3.65;1.48;;;;;;;;;;4347137;32;20098;-90
2020/12/10 10:12:47;;;;;;;6.37;1.70;;;;;;;;;;4325191;33;20044;-90
2020/12/10 10:15:17;;;;;;;5.03;1.70;;;;;;;;;;4329777;33;20134;-89
2020/12/10 10:17:47;;;;;;;4.60;4.05;;;;;;;;;;4330757;33;20155;-90
2020/12/10 10:20:18;;;;;;;7.18;1.92;;;;;;;;;;4345048;33;20382;-93
2020/12/10 10:22:57;;;;;;;8.50;1.48;;;;;;;;;;4336959;33;20109;-89
2020/12/10 10:25:27;;;;;;;5.47;1.55;;;;;;;;;;4331369;33;20103;-90
2020/12/10 10:27:56;;;;;;;2.72;1.20;;;;;;;;;;4321999;33;20052;-91
2020/12/10 10:30:25;;;;;;;7.03;6.25;;;;;;;;;;4332002;33;20099;-91
2020/12/10 10:33:09;;;;;;;2.42;1.00;;;;;;;;;;4331298;33;20056;-90
2020/12/10 10:35:38;;;;;;;3.55;0.82;;;;;;;;;;4334215;33;20091;-90
2020/12/10 10:38:06;;;;;;;1.75;0.90;;;;;;;;;;4344250;33;20134;-89
2020/12/10 10:40:38;;;;;;;6.37;1.20;;;;;;;;;;4350474;32;20099;-90
2020/12/10 10:43:07;;;;;;;3.55;1.62;;;;;;;;;;4336123;32;20494;-91
2020/12/10 10:45:36;;;;;;;1.77;1.30;;;;;;;;;;4349057;33;20108;-91
2020/12/10 10:48:04;;;;;;;3.20;1.35;;;;;;;;;;4334846;32;20126;-90
2020/12/10 10:50:33;;;;;;;3.87;2.47;;;;;;;;;;4347826;32;20509;-91
2020/12/10 10:53:06;;;;;;;3.85;1.83;;;;;;;;;;4344431;33;20103;-91
2020/12/10 10:55:38;;;;;;;3.12;1.50;;;;;;;;;;4336226;33;20436;-92
2020/12/10 10:58:07;;;;;;;3.92;1.27;;;;;;;;;;4343517;33;20088;-91
2020/12/10 11:00:35;;;;;;;1.67;1.58;;;;;;;;;;4344350;33;20064;-92
2020/12/10 11:03:04;;;;;;;4.85;1.65;;;;;;;;;;4341995;32;20115;-91
2020/12/10 11:05:34;;;;;;;3.40;1.10;;;;;;;;;;4333972;33;20096;-89
2020/12/10 11:08:22;;;;;;;1.75;0.95;;;;;;;;;;4332668;33;20131;-91
2020/12/10 11:10:51;;;;;;;3.53;1.33;;;;;;;;;;4342071;33;20098;-92
2020/12/10 11:13:19;;;;;;;2.67;1.30;;;;;;;;;;4322930;33;20072;-91
2020/12/10 11:15:47;;;;;;;1.80;1.20;;;;;;;;;;4337909;33;20362;-92
2020/12/10 11:18:18;;;;;;;2.22;1.15;;;;;;;;;;4346484;33;20048;-91
2020/12/10 11:20:46;;;;;;;8.20;0.88;;;;;;;;;;4346542;33;20093;-91
2020/12/10 11:23:15;;;;;;;1.75;1.40;;;;;;;;;;4340796;33;20091;-90
2020/12/10 11:25:43;;;;;;;1.50;1.40;;;;;;;;;;4354501;33;20099;-91
2020/12/10 11:28:12;;;;;;;3.65;0.88;;;;;;;;;;4332484;33;20072;-91
2020/12/10 11:30:40;;;;;;;2.03;0.90;;;;;;;;;;4341103;33;20134;-90
2020/12/10 11:33:26;;;;;;;1.92;0.90;;;;;;;;;;4347338;33;20134;-92
2020/12/10 11:35:55;;;;;;;2.35;1.37;;;;;;;;;;4334419;33;20508;-90
2020/12/10 11:38:23;;;;;;;1.77;0.80;;;;;;;;;;4351804;33;20055;-89
2020/12/10 11:40:51;;;;;;;5.35;1.02;;;;;;;;;;4345924;33;20165;-90
2020/12/10 11:43:20;;;;;;;1.60;0.90;;;;;;;;;;4324111;33;20449;-90
2020/12/10 11:45:48;;;;;;;1.40;0.73;;;;;;;;;;4348238;33;20076;-90
2020/12/10 11:48:16;;;;;;;1.25;0.60;;;;;;;;;;4352224;33;20154;-90
2020/12/10 11:50:46;;;;;;;1.87;0.60;;;;;;;;;;4348989;32;20079;-90
2020/12/10 11:53:19;;;;;;;3.10;0.80;;;;;;;;;;4326663;33;20863;-89
2020/12/10 11:55:48;;;;;;;2.45;0.93;;;;;;;;;;4337538;33;20086;-89
2020/12/10 11:58:16;;;;;;;2.05;1.17;;;;;;;;;;4333069;33;20055;-89
2020/12/10 12:00:44;;;;;;;1.85;1.12;;;;;;;;;;4349470;32;20474;-90
2020/12/10 12:03:13;;;;;;;3.58;1.52;;;;;;;;;;4349591;32;20099;-90
2020/12/10 12:06:02;;;;;;;0.90;0.80;;;;;;;;;;4337600;33;20133;-90
2020/12/10 12:08:38;;;;;;;5.10;4.82;;;;;;;;;;4334107;33;20067;-90
2020/12/10 12:11:06;;;;;;;1.65;1.00;;;;;;;;;;4344904;32;20414;-89
2020/12/10 12:13:39;;;;;;;1.75;1.45;;;;;;;;;;4349594;33;20063;-91
2020/12/10 12:16:07;;;;;;;6.93;6.43;;;;;;;;;;4335874;33;20073;-91
2020/12/10 12:18:36;;;;;;;1.60;1.50;;;;;;;;;;4350386;33;20059;-90
2020/12/10 12:21:27;;;;;;;3.25;2.45;;;;;;;;;;4350134;33;20457;-91
2020/12/10 12:23:57;;;;;;;5.30;4.80;;;;;;;;;;4348005;32;20499;-91
2020/12/10 12:26:30;;;;;;;3.50;1.60;;;;;;;;;;4349781;33;20110;-91
2020/12/10 12:29:00;;;;;;;1.95;1.60;;;;;;;;;;4349957;33;20051;-91
2020/12/10 12:31:33;;;;;;;3.67;1.55;;;;;;;;;;4337788;33;20397;-90
2020/12/10 12:34:21;;;;;;;1.45;1.33;;;;;;;;;;4337286;33;20082;-96
2020/12/10 12:36:50;;;;;;;2.60;1.50;;;;;;;;;;4331634;32;20095;-95
2020/12/10 12:39:22;;;;;;;2.65;1.35;;;;;;;;;;4343323;33;20064;-95
2020/12/10 12:42:08;;;;;;;5.25;0.80;;;;;;;;;;4345099;33;20073;-94
2020/12/10 12:44:37;;;;;;;2.60;1.70;;;;;;;;;;4359314;32;20086;-95
2020/12/10 12:47:09;;;;;;;1.83;1.00;;;;;;;;;;4350323;33;20113;-96
2020/12/10 12:49:41;;;;;;;1.48;1.40;;;;;;;;;;4331474;33;20088;-96
2020/12/10 12:52:29;;;;;;;2.00;1.80;;;;;;;;;;4329524;33;20052;-96
2020/12/10 12:54:58;;;;;;;2.08;1.50;;;;;;;;;;4328676;33;20063;-96
2020/12/10 12:57:28;;;;;;;2.62;1.00;;;;;;;;;;4358704;32;20060;-95
2020/12/10 13:00:29;;;;;;;2.70;0.95;;;;;;;;;;4345095;33;20090;-93
2020/12/10 13:03:18;;;;;;;3.28;1.33;;;;;;;;;;4332375;33;20471;-94
2020/12/10 13:05:46;;;;;;;2.08;1.50;;;;;;;;;;4343032;33;20059;-95
2020/12/10 13:08:32;;;;;;;1.77;1.20;;;;;;;;;;4355275;32;20048;-94
2020/12/10 13:11:19;;;;;;;4.70;0.98;;;;;;;;;;4294485;33;20049;-94
2020/12/10 13:13:51;;;;;;;1.17;0.70;;;;;;;;;;4313375;33;20130;-95
2020/12/10 13:16:21;;;;;;;3.45;0.60;;;;;;;;;;4295672;33;20049;-96
2020/12/10 13:18:51;;;;;;;2.00;0.73;;;;;;;;;;4270719;33;20070;-94
2020/12/10 13:21:24;;;;;;;0.85;0.80;;;;;;;;;;4268611;33;20166;-90
2020/12/10 13:24:13;;;;;;;2.25;0.75;;;;;;;;;;4279058;33;20104;-90
2020/12/10 13:26:41;;;;;;;3.45;0.70;;;;;;;;;;4272758;33;20065;-90
2020/12/10 13:29:11;;;;;;;4.95;0.70;;;;;;;;;;4286646;33;20057;-90
2020/12/10 13:31:40;;;;;;;2.28;0.70;;;;;;;;;;4265919;33;20112;-90
2020/12/10 13:34:11;;;;;;;1.62;0.70;;;;;;;;;;4274669;33;20353;-91
2020/12/10 13:36:40;;;;;;;1.45;1.00;;;;;;;;;;4288181;33;20102;-93
2020/12/10 13:39:36;;;;;;;1.85;0.70;;;;;;;;;;4278725;33;20073;-91
2020/12/10 13:42:28;;;;;;;3.10;0.70;;;;;;;;;;4280757;33;20057;-91
2020/12/10 13:44:57;;;;;;;1.15;0.80;;;;;;;;;;4277641;33;20131;-91
2020/12/10 13:47:45;;;;;;;2.03;0.57;;;;;;;;;;4292084;33;20729;-92
2020/12/10 13:50:14;;;;;;;2.47;0.60;;;;;;;;;;4281974;33;20137;-92
2020/12/10 13:52:48;;;;;;;0.40;0.40;;;;;;;;;;4256906;33;20057;-91
2020/12/10 13:55:18;;;;;;;1.50;0.70;;;;;;;;;;4292510;33;20065;-91
2020/12/10 13:57:51;;;;;;;2.55;1.00;;;;;;;;;;4289708;33;20088;-92
2020/12/10 14:00:41;;;;;;;4.32;0.70;;;;;;;;;;4281239;33;20171;-93
2020/12/10 14:03:30;;;;;;;4.25;0.73;;;;;;;;;;4279381;33;20076;-92
2020/12/10 14:06:12;;;;;;;0.68;0.68;;;;;;;;;;4290982;33;20061;-92
2020/12/10 14:08:40;;;;;;;1.65;0.40;;;;;;;;;;4290060;33;20119;-90
2020/12/10 14:11:28;;;;;;;3.35;0.95;;;;;;;;;;4326353;33;20091;-91
2020/12/10 14:14:02;;;;;;;0.90;0.52;;;;;;;;;;4351115;32;20079;-92
2020/12/10 14:16:32;;;;;;;1.45;0.93;;;;;;;;;;4346658;32;20064;-92
2020/12/10 14:19:02;;;;;;;2.83;1.15;;;;;;;;;;4323937;33;20079;-90
2020/12/10 14:21:31;;;;;;;1.77;0.60;;;;;;;;;;4349663;32;20048;-92
2020/12/10 14:24:05;;;;;;;4.07;1.00;;;;;;;;;;4334677;33;20876;-90
2020/12/10 14:26:59;;;;;;;7.83;1.90;;;;;;;;;;4338060;33;20052;-91
2020/12/10 14:29:28;;;;;;;0.60;0.60;;;;;;;;;;4342460;32;20109;-90
2020/12/10 14:32:00;;;;;;;1.02;0.40;;;;;;;;;;4333804;33;20059;-90
2020/12/10 14:34:29;;;;;;;1.65;0.70;;;;;;;;;;4324024;33;20374;-89
2020/12/10 14:36:58;;;;;;;1.02;0.57;;;;;;;;;;4348351;33;20067;-90
2020/12/10 14:39:26;;;;;;;4.32;0.60;;;;;;;;;;4349006;33;20118;-89
2020/12/10 14:41:58;;;;;;;2.58;0.55;;;;;;;;;;4333914;33;20055;-90
2020/12/10 14:44:27;;;;;;;3.62;0.75;;;;;;;;;;4334895;33;20060;-92
2020/12/10 14:46:58;;;;;;;2.90;0.60;;;;;;;;;;4350571;32;20063;-91
2020/12/10 14:49:30;;;;;;;1.23;0.60;;;;;;;;;;4335069;33;20082;-91
2020/12/10 14:51:59;;;;;;;1.48;0.47;;;;;;;;;;4323388;33;20198;-90
2020/12/10 14:54:31;;;;;;;3.17;1.35;;;;;;;;;;4353928;32;20055;-90
2020/12/10 14:57:00;;;;;;;2.72;0.60;;;;;;;;;;4347407;33;20106;-92
2020/12/10 14:59:29;;;;;;;2.70;0.50;;;;;;;;;;4350878;32;20059;-92
2020/12/10 15:01:58;;;;;;;1.52;0.60;;;;;;;;;;4337518;33;20086;-90
2020/12/10 15:04:26;;;;;;;1.37;1.00;;;;;;;;;;4352608;32;20117;-91
2020/12/10 15:06:55;;;;;;;5.00;0.80;;;;;;;;;;4350576;32;20119;-91
2020/12/10 15:09:23;;;;;;;1.85;0.90;;;;;;;;;;4350364;33;20052;-90
2020/12/10 15:11:51;;;;;;;2.37;0.60;;;;;;;;;;4337908;33;20047;-93
2020/12/10 15:14:19;;;;;;;2.15;1.00;;;;;;;;;;4350489;33;20052;-93